< < Back
Terminal Aerodrome Forecast


Current Version              Previous Versions:   1  2  3  4  5  6  7  8  9  

Terminal Aerodrome Forecast

492
FTUS42 KFFC 241100
TAFCSG
TAF
KCSG 241123Z 2412/2512 00000KT P6SM SCT250
     FM241600 VRB04KT P6SM FEW200
     FM250000 00000KT P6SM SKC=



Latest METAR

227
SAUS70 KWBC 250000
MTRCSG
METAR KCSG 242351Z 00000KT 10SM CLR 18/09 A3001 RMK AO2 SLP160 T01780089
10239 20172 53005


USA.gov is the U.S. government's official web portal to all federal, state and local government web resources and services.